»·PEaware :: N2983C KRIU-KSNA

N2983C :: KRIU-KSNA

FLIGHT INFORMATION

Flight Status: Arrived
Operator: Privately registered:
United States
More flights under this callsign
Pilot: Roland C. (21206)
Aircraft: BEECH AIRCRAFT DEBONAIR BONANZA
(BE33)
More flights by this aircraft type
Origin: KRIU Rancho Murieta
United States
Destination: KSNA John Wayne-Orange Co
United States
More flights between these airports :: More routes between these airports
Route: +LIN V133 PXN T263 FIM TANDY5
File this flight plan on PilotEdge
Remarks:
Altitude:
(Current/Filed)
13,000ft
Speed:
(Current/Filed)
150kts
Departed: 22-May-20 11:20 AM
Arrived: 22-May-20 01:32 PM
Distance/Time
Traveled:
328nm/2:12
Distance/Time
To Go:
Arrived

Flight Plot

Page will automatically refresh every two minutes.


Map Options




Map Legend


Flown Route
Filed Route
Departure Airport
Arrival Airport
Navaid (VOR, NDB)
Fix

Horizontal Profiles

Position Reports

Time Latitude Longitude Heading Altitude Ground
Speed
22-May-20 10:59 38.488327 -121.104132 63 144ft 0kts
22-May-20 11:00 38.488327 -121.104132 63 144ft 0kts
22-May-20 11:01 38.488327 -121.104132 63 144ft 0kts
22-May-20 11:02 38.488327 -121.104132 63 144ft 0kts
22-May-20 11:03 38.488327 -121.104132 63 144ft 0kts
22-May-20 11:04 38.488327 -121.104132 63 144ft 0kts
22-May-20 11:05 38.488327 -121.104132 63 144ft 0kts
22-May-20 11:06 38.488327 -121.104132 63 144ft 0kts
22-May-20 11:07 38.488327 -121.104132 63 144ft 0kts
22-May-20 11:08 38.488327 -121.104132 63 144ft 0kts
22-May-20 11:09 38.488327 -121.104132 63 144ft 0kts
22-May-20 11:10 38.488327 -121.104132 63 144ft 0kts
22-May-20 11:11 38.488327 -121.104132 63 144ft 0kts
22-May-20 11:12 38.488327 -121.104132 63 144ft 0kts
22-May-20 11:13 38.488327 -121.104132 63 144ft 0kts
22-May-20 11:14 38.488327 -121.104132 63 144ft 0kts
22-May-20 11:15 38.487177 -121.104173 205 143ft 10kts
22-May-20 11:16 38.484052 -121.108411 173 138ft 0kts
22-May-20 11:17 38.484052 -121.108412 173 137ft 0kts
22-May-20 11:18 38.483993 -121.108392 150 137ft 3kts
22-May-20 11:19 38.487987 -121.100642 54 182ft 88kts
22-May-20 11:20 38.489382 -121.076292 153 1049ft 81kts
22-May-20 11:21 38.464491 -121.080331 200 1683ft 103kts
22-May-20 11:22 38.435555 -121.088218 179 2396ft 112kts
22-May-20 11:23 38.406618 -121.083151 172 3316ft 94kts
22-May-20 11:24 38.380151 -121.076906 171 4292ft 104kts
22-May-20 11:25 38.347810 -121.069237 171 5035ft 128kts
22-May-20 11:26 38.311228 -121.060454 170 5752ft 137kts
22-May-20 11:27 38.273469 -121.051392 171 6452ft 139kts
22-May-20 11:28 38.235345 -121.042238 171 7152ft 140kts
22-May-20 11:29 38.196931 -121.033041 171 7853ft 141kts
22-May-20 11:30 38.158309 -121.023795 172 8552ft 141kts
22-May-20 11:31 38.120034 -121.014615 172 9247ft 139kts
22-May-20 11:33 38.082256 -121.005541 174 9942ft 136kts
22-May-20 11:34 38.045383 -121.000689 182 10636ft 131kts
22-May-20 11:35 38.009729 -120.996975 184 11327ft 126kts
22-May-20 11:36 37.975643 -120.993294 185 12015ft 119kts
22-May-20 11:37 37.943461 -120.989928 187 12702ft 112kts
22-May-20 11:38 37.910611 -120.986898 186 13009ft 137kts
22-May-20 11:39 37.868419 -120.982709 184 13001ft 164kts
22-May-20 11:40 37.821369 -120.977775 183 12986ft 173kts
22-May-20 11:41 37.772966 -120.972756 183 12985ft 176kts
22-May-20 11:42 37.724502 -120.967790 183 12975ft 175kts
22-May-20 11:43 37.675769 -120.962798 183 12985ft 175kts
22-May-20 11:44 37.628046 -120.962211 208 12993ft 163kts
22-May-20 11:45 37.586897 -120.986003 215 12992ft 161kts
22-May-20 11:46 37.547074 -121.012446 215 12986ft 161kts
22-May-20 11:47 37.507577 -121.039057 216 13000ft 161kts
22-May-20 11:48 37.460577 -121.037806 175 12995ft 180kts
22-May-20 11:48 37.419860 -121.024526 172 12991ft 181kts
22-May-20 11:50 37.363032 -121.004587 172 12990ft 182kts
22-May-20 11:51 37.314036 -120.987392 172 12984ft 183kts
22-May-20 11:51 37.273535 -120.973171 171 12986ft 181kts
22-May-20 11:53 37.216785 -120.953152 172 12982ft 182kts
22-May-20 11:53 37.176425 -120.939063 172 12990ft 180kts
22-May-20 11:54 37.128379 -120.922270 172 12997ft 179kts
22-May-20 11:55 37.080373 -120.905514 171 13002ft 179kts
22-May-20 11:56 37.031993 -120.888581 171 12999ft 180kts
22-May-20 11:57 36.983663 -120.871726 171 13000ft 180kts
22-May-20 11:58 36.935422 -120.854935 171 13002ft 180kts
22-May-20 11:59 36.886677 -120.837986 171 13000ft 180kts
22-May-20 12:00 36.838275 -120.821170 171 13000ft 180kts
22-May-20 12:01 36.789962 -120.804426 171 12999ft 180kts
22-May-20 12:02 36.741617 -120.787678 171 13000ft 180kts
22-May-20 12:03 36.695041 -120.762673 155 12999ft 187kts
22-May-20 12:04 36.650477 -120.729200 154 12999ft 187kts
22-May-20 12:05 36.605984 -120.695457 154 13000ft 187kts
22-May-20 12:06 36.561333 -120.661614 154 12996ft 187kts
22-May-20 12:07 36.516833 -120.627915 155 12995ft 188kts
22-May-20 12:08 36.471997 -120.594043 155 12993ft 188kts
22-May-20 12:09 36.427497 -120.560426 155 12994ft 188kts
22-May-20 12:10 36.382741 -120.526704 155 12991ft 188kts
22-May-20 12:11 36.337756 -120.492865 154 12994ft 188kts
22-May-20 12:12 36.292696 -120.458975 154 12993ft 189kts
22-May-20 12:13 36.247712 -120.425210 154 12994ft 189kts
22-May-20 12:14 36.202759 -120.391492 155 12994ft 188kts
22-May-20 12:15 36.157917 -120.357925 155 12991ft 188kts
22-May-20 12:16 36.113017 -120.324371 155 12987ft 188kts
22-May-20 12:17 36.068417 -120.291050 155 12988ft 187kts
22-May-20 12:18 36.023719 -120.257726 155 12989ft 188kts
22-May-20 12:19 35.979250 -120.224578 155 12990ft 187kts
22-May-20 12:20 35.934450 -120.191304 155 12996ft 187kts
22-May-20 12:21 35.890754 -120.158834 155 12996ft 188kts
22-May-20 12:22 35.845821 -120.125501 155 12993ft 188kts
22-May-20 12:23 35.801186 -120.092441 155 12989ft 188kts
22-May-20 12:24 35.756210 -120.059188 155 12983ft 188kts
22-May-20 12:25 35.711542 -120.026187 155 12978ft 188kts
22-May-20 12:26 35.666567 -119.992993 155 12971ft 188kts
22-May-20 12:27 35.622604 -119.957389 150 12972ft 189kts
22-May-20 12:28 35.579534 -119.920110 150 12971ft 189kts
22-May-20 12:29 35.536558 -119.882939 150 12971ft 189kts
22-May-20 12:30 35.493615 -119.845838 150 12977ft 188kts
22-May-20 12:31 35.450708 -119.808845 150 12986ft 189kts
22-May-20 12:32 35.407753 -119.771838 150 12996ft 188kts
22-May-20 12:33 35.364930 -119.734980 150 13009ft 188kts
22-May-20 12:34 35.322054 -119.698155 150 13009ft 188kts
22-May-20 12:35 35.279178 -119.661370 150 13012ft 188kts
22-May-20 12:36 35.236161 -119.624492 150 13011ft 189kts
22-May-20 12:37 35.193006 -119.587544 150 13011ft 188kts
22-May-20 12:38 35.149745 -119.550625 150 13024ft 190kts
22-May-20 12:39 35.106143 -119.513333 150 13012ft 191kts
22-May-20 12:40 35.062518 -119.476161 150 13012ft 191kts
22-May-20 12:41 35.019076 -119.439284 149 13008ft 191kts
22-May-20 12:42 34.975407 -119.402141 150 13010ft 191kts
22-May-20 12:43 34.931911 -119.365157 150 13014ft 190kts
22-May-20 12:44 34.887840 -119.327695 150 13017ft 189kts
22-May-20 12:45 34.844572 -119.291044 150 13000ft 189kts
22-May-20 12:46 34.801145 -119.254367 150 13009ft 190kts
22-May-20 12:47 34.757505 -119.217533 150 13013ft 190kts
22-May-20 12:48 34.714001 -119.180859 151 13013ft 191kts
22-May-20 12:49 34.670488 -119.144180 150 13015ft 191kts
22-May-20 12:50 34.626950 -119.107561 150 13020ft 189kts
22-May-20 12:51 34.583657 -119.071218 150 13020ft 189kts
22-May-20 12:52 34.540293 -119.034846 150 13013ft 190kts
22-May-20 12:53 34.496656 -118.998245 150 13019ft 190kts
22-May-20 12:54 34.453318 -118.962015 150 13024ft 189kts
22-May-20 12:55 34.409861 -118.925546 150 13061ft 189kts
22-May-20 12:56 34.366574 -118.889465 150 13057ft 188kts
22-May-20 12:57 34.316177 -118.866408 167 12243ft 202kts
22-May-20 12:58 34.261738 -118.846406 167 11421ft 194kts
22-May-20 12:59 34.216217 -118.829365 169 11991ft 152kts
22-May-20 13:00 34.179710 -118.815780 170 12855ft 124kts
22-May-20 13:01 34.144122 -118.803107 171 13072ft 152kts
22-May-20 13:02 34.100139 -118.787017 169 13070ft 175kts
22-May-20 13:03 34.052360 -118.769492 169 13063ft 179kts
22-May-20 13:04 34.004419 -118.752019 168 13054ft 181kts
22-May-20 13:05 33.956024 -118.734284 169 13056ft 182kts
22-May-20 13:06 33.907708 -118.716652 168 13056ft 181kts
22-May-20 13:07 33.859910 -118.699186 168 13050ft 181kts
22-May-20 13:08 33.811734 -118.681747 169 13037ft 181kts
22-May-20 13:09 33.763365 -118.664177 169 13036ft 182kts
22-May-20 13:10 33.713191 -118.646426 169 12386ft 201kts
22-May-20 13:11 33.660947 -118.627902 167 10881ft 193kts
22-May-20 13:12 33.611931 -118.606067 137 9377ft 191kts
22-May-20 13:13 33.605022 -118.546011 82 7883ft 188kts
22-May-20 13:14 33.611452 -118.483742 81 7049ft 191kts
22-May-20 13:15 33.617817 -118.424443 81 7001ft 169kts
22-May-20 13:16 33.623958 -118.368139 82 6997ft 170kts
22-May-20 13:17 33.630156 -118.311933 83 7001ft 171kts
22-May-20 13:18 33.636674 -118.254370 82 6768ft 182kts
22-May-20 13:19 33.643484 -118.196181 82 5967ft 170kts
22-May-20 13:20 33.650365 -118.141417 82 5151ft 163kts
22-May-20 13:21 33.657842 -118.091496 64 5000ft 154kts
22-May-20 13:22 33.690503 -118.054881 40 5003ft 165kts
22-May-20 13:23 33.725608 -118.018780 40 5000ft 165kts
22-May-20 13:24 33.760818 -117.982669 40 4999ft 165kts
22-May-20 13:25 33.795780 -117.946749 44 4996ft 166kts
22-May-20 13:26 33.803283 -117.892688 91 4622ft 182kts
22-May-20 13:28 33.782023 -117.842668 145 4050ft 172kts
22-May-20 13:29 33.745146 -117.825032 184 3545ft 137kts
22-May-20 13:30 33.712028 -117.843523 147 2144ft 131kts
22-May-20 13:31 33.690456 -117.859306 208 421ft 75kts
22-May-20 13:32 33.676417 -117.868329 202 59ft 32kts
22-May-20 13:33 33.675894 -117.869621 296 59ft 0kts
22-May-20 13:34 33.675960 -117.869918 254 59ft 4kts
22-May-20 13:35 33.675776 -117.871032 209 59ft 0kts
22-May-20 13:36 33.675776 -117.871032 210 59ft 0kts
22-May-20 13:37 33.675776 -117.871032 210 59ft 0kts

Navigation Log

Ident Type
Flight plan parsing failed, navigation log unavailable